sensor_id;sensor_type;location;lat;lon;timestamp;pressure;altitude;pressure_sealevel;temperature;humidity
62038;BME280;47991;42.974;12.082;2023-02-03T00:01:48;98767.39;;;2.53;80.45
62038;BME280;47991;42.974;12.082;2023-02-03T00:04:15;98761.25;;;2.42;80.10
62038;BME280;47991;42.974;12.082;2023-02-03T00:06:42;98756.43;;;2.28;80.31
62038;BME280;47991;42.974;12.082;2023-02-03T00:09:09;98755.45;;;2.23;81.02
62038;BME280;47991;42.974;12.082;2023-02-03T00:11:36;98761.21;;;2.32;80.69
62038;BME280;47991;42.974;12.082;2023-02-03T00:14:03;98761.31;;;2.37;80.76
62038;BME280;47991;42.974;12.082;2023-02-03T00:16:30;98761.37;;;2.31;80.73
62038;BME280;47991;42.974;12.082;2023-02-03T00:18:57;98759.94;;;2.30;80.69
62038;BME280;47991;42.974;12.082;2023-02-03T00:21:23;98767.23;;;2.35;80.61
62038;BME280;47991;42.974;12.082;2023-02-03T00:23:50;98763.36;;;2.34;80.30
62038;BME280;47991;42.974;12.082;2023-02-03T00:26:17;98761.46;;;2.36;80.53
62038;BME280;47991;42.974;12.082;2023-02-03T00:28:44;98758.55;;;2.30;80.56
62038;BME280;47991;42.974;12.082;2023-02-03T00:31:15;98748.85;;;2.24;80.70
62038;BME280;47991;42.974;12.082;2023-02-03T00:33:42;98745.02;;;2.25;81.32
62038;BME280;47991;42.974;12.082;2023-02-03T00:36:09;98741.19;;;2.25;80.77
62038;BME280;47991;42.974;12.082;2023-02-03T00:38:36;98738.52;;;2.23;81.37
62038;BME280;47991;42.974;12.082;2023-02-03T00:41:02;98735.85;;;2.29;80.93
62038;BME280;47991;42.974;12.082;2023-02-03T00:43:29;98736.31;;;2.34;80.70
62038;BME280;47991;42.974;12.082;2023-02-03T00:45:56;98733.27;;;2.38;80.72
62038;BME280;47991;42.974;12.082;2023-02-03T00:48:22;98733.60;;;2.29;80.35
62038;BME280;47991;42.974;12.082;2023-02-03T00:50:49;98738.48;;;2.21;80.52
62038;BME280;47991;42.974;12.082;2023-02-03T00:53:15;98739.00;;;2.20;80.98
62038;BME280;47991;42.974;12.082;2023-02-03T00:55:42;98746.43;;;2.25;81.33
62038;BME280;47991;42.974;12.082;2023-02-03T00:58:09;98747.53;;;2.28;81.55
62038;BME280;47991;42.974;12.082;2023-02-03T01:00:37;98747.77;;;2.32;80.71
62038;BME280;47991;42.974;12.082;2023-02-03T01:03:04;98752.38;;;2.35;80.89
62038;BME280;47991;42.974;12.082;2023-02-03T01:05:31;98754.56;;;2.39;81.10
62038;BME280;47991;42.974;12.082;2023-02-03T01:07:59;98756.63;;;2.47;81.76
62038;BME280;47991;42.974;12.082;2023-02-03T01:10:27;98763.63;;;2.48;80.97
62038;BME280;47991;42.974;12.082;2023-02-03T01:12:54;98770.70;;;2.35;80.90
62038;BME280;47991;42.974;12.082;2023-02-03T01:15:20;98775.38;;;2.33;82.03
62038;BME280;47991;42.974;12.082;2023-02-03T01:17:47;98776.92;;;2.32;83.02
62038;BME280;47991;42.974;12.082;2023-02-03T01:20:14;98776.18;;;2.38;83.40
62038;BME280;47991;42.974;12.082;2023-02-03T01:22:42;98783.02;;;2.40;84.99
62038;BME280;47991;42.974;12.082;2023-02-03T01:25:09;98781.20;;;2.53;85.63
62038;BME280;47991;42.974;12.082;2023-02-03T01:27:36;98779.34;;;2.66;86.24
62038;BME280;47991;42.974;12.082;2023-02-03T01:30:03;98772.26;;;2.70;84.36
62038;BME280;47991;42.974;12.082;2023-02-03T01:32:30;98772.78;;;2.70;85.09
62038;BME280;47991;42.974;12.082;2023-02-03T01:34:56;98771.77;;;2.63;83.91
62038;BME280;47991;42.974;12.082;2023-02-03T01:37:23;98769.91;;;2.56;83.33
62038;BME280;47991;42.974;12.082;2023-02-03T01:39:49;98772.54;;;2.58;83.50
62038;BME280;47991;42.974;12.082;2023-02-03T01:42:16;98767.45;;;2.65;83.87
62038;BME280;47991;42.974;12.082;2023-02-03T01:44:45;98758.20;;;2.74;83.33
62038;BME280;47991;42.974;12.082;2023-02-03T01:52:54;98741.43;;;2.64;82.48
62038;BME280;47991;42.974;12.082;2023-02-03T01:55:40;98739.77;;;2.69;83.53
62038;BME280;47991;42.974;12.082;2023-02-03T01:58:15;98743.38;;;2.84;84.63
62038;BME280;47991;42.974;12.082;2023-02-03T02:00:47;98751.71;;;2.82;85.88
62038;BME280;47991;42.974;12.082;2023-02-03T02:03:18;98750.77;;;2.88;85.97
62038;BME280;47991;42.974;12.082;2023-02-03T02:05:53;98744.13;;;2.97;84.91
62038;BME280;47991;42.974;12.082;2023-02-03T02:08:23;98741.69;;;2.88;83.25
62038;BME280;47991;42.974;12.082;2023-02-03T02:10:50;98742.17;;;2.76;83.48
62038;BME280;47991;42.974;12.082;2023-02-03T02:13:18;98742.91;;;2.78;83.50
62038;BME280;47991;42.974;12.082;2023-02-03T02:21:33;98742.15;;;2.84;84.21
62038;BME280;47991;42.974;12.082;2023-02-03T02:24:18;98747.77;;;2.86;85.96
62038;BME280;47991;42.974;12.082;2023-02-03T02:38:04;98744.52;;;2.80;83.91
62038;BME280;47991;42.974;12.082;2023-02-03T02:43:22;98746.15;;;2.65;83.81
62038;BME280;47991;42.974;12.082;2023-02-03T02:46:12;98746.96;;;2.61;84.50
62038;BME280;47991;42.974;12.082;2023-02-03T02:51:42;98748.34;;;2.60;87.35
62038;BME280;47991;42.974;12.082;2023-02-03T02:54:17;98744.38;;;2.62;85.01
62038;BME280;47991;42.974;12.082;2023-02-03T02:56:50;98746.80;;;2.43;83.90
62038;BME280;47991;42.974;12.082;2023-02-03T02:59:18;98750.45;;;2.26;83.72
62038;BME280;47991;42.974;12.082;2023-02-03T03:01:45;98755.38;;;2.19;84.53
62038;BME280;47991;42.974;12.082;2023-02-03T03:04:14;98757.71;;;2.23;84.39
62038;BME280;47991;42.974;12.082;2023-02-03T03:06:52;98754.83;;;2.27;84.22
62038;BME280;47991;42.974;12.082;2023-02-03T03:09:24;98755.27;;;2.22;84.55
62038;BME280;47991;42.974;12.082;2023-02-03T03:12:16;98761.06;;;2.15;84.39
62038;BME280;47991;42.974;12.082;2023-02-03T03:14:49;98769.88;;;2.12;84.51
62038;BME280;47991;42.974;12.082;2023-02-03T03:17:25;98774.94;;;2.12;84.51
62038;BME280;47991;42.974;12.082;2023-02-03T03:19:55;98776.56;;;2.06;84.08
62038;BME280;47991;42.974;12.082;2023-02-03T03:22:28;98779.71;;;1.99;84.16
62038;BME280;47991;42.974;12.082;2023-02-03T03:25:29;98780.15;;;1.95;83.97
62038;BME280;47991;42.974;12.082;2023-02-03T03:28:03;98779.02;;;1.98;84.57
62038;BME280;47991;42.974;12.082;2023-02-03T03:30:34;98782.83;;;2.05;84.79
62038;BME280;47991;42.974;12.082;2023-02-03T03:33:02;98786.63;;;2.12;85.52
62038;BME280;47991;42.974;12.082;2023-02-03T03:38:22;98787.73;;;2.22;86.30
62038;BME280;47991;42.974;12.082;2023-02-03T03:41:00;98778.45;;;2.31;84.92
62038;BME280;47991;42.974;12.082;2023-02-03T03:43:31;98784.25;;;2.24;83.71
62038;BME280;47991;42.974;12.082;2023-02-03T03:46:09;98787.08;;;2.17;83.85
62038;BME280;47991;42.974;12.082;2023-02-03T03:48:51;98787.90;;;2.15;83.85
62038;BME280;47991;42.974;12.082;2023-02-03T03:51:32;98782.82;;;2.13;84.21
62038;BME280;47991;42.974;12.082;2023-02-03T03:54:04;98783.78;;;2.10;83.83
62038;BME280;47991;42.974;12.082;2023-02-03T03:56:43;98781.25;;;2.14;84.50
62038;BME280;47991;42.974;12.082;2023-02-03T03:59:12;98783.41;;;2.25;86.42
62038;BME280;47991;42.974;12.082;2023-02-03T04:01:40;98785.50;;;2.24;85.57
62038;BME280;47991;42.974;12.082;2023-02-03T04:04:09;98790.84;;;2.30;85.10
62038;BME280;47991;42.974;12.082;2023-02-03T04:06:37;98790.80;;;2.36;84.54
62038;BME280;47991;42.974;12.082;2023-02-03T04:09:05;98796.98;;;2.40;84.23
62038;BME280;47991;42.974;12.082;2023-02-03T04:11:31;98791.61;;;2.41;83.88
62038;BME280;47991;42.974;12.082;2023-02-03T04:14:16;98789.69;;;2.42;83.81
62038;BME280;47991;42.974;12.082;2023-02-03T04:16:43;98789.88;;;2.42;83.75
62038;BME280;47991;42.974;12.082;2023-02-03T04:19:09;98790.73;;;2.41;83.55
62038;BME280;47991;42.974;12.082;2023-02-03T04:21:36;98790.80;;;2.36;83.52
62038;BME280;47991;42.974;12.082;2023-02-03T04:24:02;98792.84;;;2.34;83.66
62038;BME280;47991;42.974;12.082;2023-02-03T04:26:29;98791.14;;;2.36;83.80
62038;BME280;47991;42.974;12.082;2023-02-03T04:28:55;98784.13;;;2.35;85.58
62038;BME280;47991;42.974;12.082;2023-02-03T04:31:22;98783.23;;;2.32;85.23
62038;BME280;47991;42.974;12.082;2023-02-03T04:33:49;98779.56;;;2.32;85.59
62038;BME280;47991;42.974;12.082;2023-02-03T04:36:15;98784.59;;;2.39;85.44
62038;BME280;47991;42.974;12.082;2023-02-03T04:38:42;98781.36;;;2.44;85.76
62038;BME280;47991;42.974;12.082;2023-02-03T04:41:08;98778.02;;;2.51;85.45
62038;BME280;47991;42.974;12.082;2023-02-03T04:43:35;98776.25;;;2.50;84.89
62038;BME280;47991;42.974;12.082;2023-02-03T04:46:01;98778.42;;;2.46;85.20
62038;BME280;47991;42.974;12.082;2023-02-03T04:48:28;98781.78;;;2.39;85.62
62038;BME280;47991;42.974;12.082;2023-02-03T04:50:54;98777.95;;;2.40;86.09
62038;BME280;47991;42.974;12.082;2023-02-03T04:53:21;98783.66;;;2.46;86.51
62038;BME280;47991;42.974;12.082;2023-02-03T04:55:47;98781.98;;;2.50;86.05
62038;BME280;47991;42.974;12.082;2023-02-03T04:58:14;98785.21;;;2.54;85.47
62038;BME280;47991;42.974;12.082;2023-02-03T05:00:40;98792.72;;;2.54;84.77
62038;BME280;47991;42.974;12.082;2023-02-03T05:03:07;98798.08;;;2.42;84.74
62038;BME280;47991;42.974;12.082;2023-02-03T05:05:33;98800.48;;;2.32;84.67
62038;BME280;47991;42.974;12.082;2023-02-03T05:08:00;98804.20;;;2.27;84.59
62038;BME280;47991;42.974;12.082;2023-02-03T05:10:27;98814.06;;;2.22;84.60
62038;BME280;47991;42.974;12.082;2023-02-03T05:12:53;98819.23;;;2.19;84.93
62038;BME280;47991;42.974;12.082;2023-02-03T05:15:20;98811.89;;;2.19;85.28
62038;BME280;47991;42.974;12.082;2023-02-03T05:17:53;98813.06;;;2.25;85.60
62038;BME280;47991;42.974;12.082;2023-02-03T05:20:20;98813.08;;;2.25;84.91
62038;BME280;47991;42.974;12.082;2023-02-03T05:22:47;98820.41;;;2.26;84.94
62038;BME280;47991;42.974;12.082;2023-02-03T05:25:14;98830.26;;;2.29;84.64
62038;BME280;47991;42.974;12.082;2023-02-03T05:27:40;98830.71;;;2.34;84.69
62038;BME280;47991;42.974;12.082;2023-02-03T05:30:08;98826.88;;;2.34;84.07
62038;BME280;47991;42.974;12.082;2023-02-03T05:32:35;98822.48;;;2.24;84.04
62038;BME280;47991;42.974;12.082;2023-02-03T05:35:01;98822.41;;;2.14;83.59
62038;BME280;47991;42.974;12.082;2023-02-03T05:37:28;98831.38;;;2.00;83.74
62038;BME280;47991;42.974;12.082;2023-02-03T05:39:55;98832.56;;;1.92;84.34
62038;BME280;47991;42.974;12.082;2023-02-03T05:42:48;98828.83;;;1.96;84.70
62038;BME280;47991;42.974;12.082;2023-02-03T05:45:15;98826.18;;;2.02;84.75
62038;BME280;47991;42.974;12.082;2023-02-03T05:47:42;98813.45;;;2.02;84.66
62038;BME280;47991;42.974;12.082;2023-02-03T05:50:09;98814.89;;;2.04;84.59
62038;BME280;47991;42.974;12.082;2023-02-03T05:52:35;98813.23;;;2.01;84.71
62038;BME280;47991;42.974;12.082;2023-02-03T05:55:02;98811.64;;;1.99;85.31
62038;BME280;47991;42.974;12.082;2023-02-03T05:57:29;98805.63;;;2.03;85.41
62038;BME280;47991;42.974;12.082;2023-02-03T05:59:56;98801.30;;;2.05;84.59
62038;BME280;47991;42.974;12.082;2023-02-03T06:02:22;98805.30;;;1.96;83.95
62038;BME280;47991;42.974;12.082;2023-02-03T06:04:49;98812.31;;;1.91;84.26
62038;BME280;47991;42.974;12.082;2023-02-03T06:07:15;98828.46;;;1.88;84.22
62038;BME280;47991;42.974;12.082;2023-02-03T06:09:42;98838.64;;;1.83;84.33
62038;BME280;47991;42.974;12.082;2023-02-03T06:12:08;98849.92;;;1.81;84.99
62038;BME280;47991;42.974;12.082;2023-02-03T06:14:35;98857.92;;;1.88;85.48
62038;BME280;47991;42.974;12.082;2023-02-03T06:17:01;98855.95;;;1.92;87.34
62038;BME280;47991;42.974;12.082;2023-02-03T06:19:28;98847.88;;;1.68;87.84
62038;BME280;47991;42.974;12.082;2023-02-03T06:21:54;98853.50;;;1.70;86.25
62038;BME280;47991;42.974;12.082;2023-02-03T06:24:21;98850.27;;;1.66;85.76
62038;BME280;47991;42.974;12.082;2023-02-03T06:26:47;98844.15;;;1.66;85.59
62038;BME280;47991;42.974;12.082;2023-02-03T06:29:14;98838.83;;;1.69;85.59
62038;BME280;47991;42.974;12.082;2023-02-03T06:31:40;98835.14;;;1.75;85.30
62038;BME280;47991;42.974;12.082;2023-02-03T06:34:07;98837.48;;;1.78;86.04
62038;BME280;47991;42.974;12.082;2023-02-03T06:36:34;98837.41;;;1.82;87.41
62038;BME280;47991;42.974;12.082;2023-02-03T06:39:00;98835.77;;;1.95;87.03
62038;BME280;47991;42.974;12.082;2023-02-03T06:41:27;98833.04;;;2.05;87.55
62038;BME280;47991;42.974;12.082;2023-02-03T06:43:55;98823.94;;;2.12;87.34
62038;BME280;47991;42.974;12.082;2023-02-03T06:46:22;98821.74;;;2.15;87.32
62038;BME280;47991;42.974;12.082;2023-02-03T06:48:48;98821.48;;;2.18;86.83
62038;BME280;47991;42.974;12.082;2023-02-03T06:51:15;98824.13;;;2.20;85.96
62038;BME280;47991;42.974;12.082;2023-02-03T06:53:41;98830.57;;;2.19;85.75
62038;BME280;47991;42.974;12.082;2023-02-03T06:56:08;98835.99;;;2.20;85.43
62038;BME280;47991;42.974;12.082;2023-02-03T06:58:34;98839.00;;;2.21;85.11
62038;BME280;47991;42.974;12.082;2023-02-03T07:01:01;98829.73;;;2.20;85.04
62038;BME280;47991;42.974;12.082;2023-02-03T07:03:27;98816.80;;;2.20;84.81
62038;BME280;47991;42.974;12.082;2023-02-03T07:05:54;98813.66;;;2.19;84.72
62038;BME280;47991;42.974;12.082;2023-02-03T07:08:20;98808.10;;;2.20;85.18
62038;BME280;47991;42.974;12.082;2023-02-03T07:10:47;98804.79;;;2.30;84.97
62038;BME280;47991;42.974;12.082;2023-02-03T07:13:18;98812.97;;;2.45;85.07
62038;BME280;47991;42.974;12.082;2023-02-03T07:15:44;98818.66;;;2.58;86.70
62038;BME280;47991;42.974;12.082;2023-02-03T07:18:11;98820.05;;;2.76;86.28
62038;BME280;47991;42.974;12.082;2023-02-03T07:20:37;98824.42;;;3.04;86.01
62038;BME280;47991;42.974;12.082;2023-02-03T07:23:04;98824.07;;;3.33;85.83
62038;BME280;47991;42.974;12.082;2023-02-03T07:25:30;98826.70;;;3.54;86.08
62038;BME280;47991;42.974;12.082;2023-02-03T07:27:57;98831.11;;;3.56;85.23
62038;BME280;47991;42.974;12.082;2023-02-03T07:30:24;98839.72;;;3.59;85.05
62038;BME280;47991;42.974;12.082;2023-02-03T07:32:51;98835.42;;;3.43;83.87
62038;BME280;47991;42.974;12.082;2023-02-03T07:35:19;98835.54;;;3.49;84.42
62038;BME280;47991;42.974;12.082;2023-02-03T07:37:45;98834.20;;;3.64;84.50
62038;BME280;47991;42.974;12.082;2023-02-03T07:40:13;98834.45;;;3.80;84.62
62038;BME280;47991;42.974;12.082;2023-02-03T07:42:44;98832.05;;;3.94;84.30
62038;BME280;47991;42.974;12.082;2023-02-03T07:45:13;98834.29;;;4.03;84.02
62038;BME280;47991;42.974;12.082;2023-02-03T07:47:41;98839.85;;;4.12;84.10
62038;BME280;47991;42.974;12.082;2023-02-03T07:50:09;98842.84;;;4.25;84.23
62038;BME280;47991;42.974;12.082;2023-02-03T07:52:37;98854.19;;;4.36;83.75
62038;BME280;47991;42.974;12.082;2023-02-03T07:55:03;98864.48;;;4.33;84.27
62038;BME280;47991;42.974;12.082;2023-02-03T07:57:30;98876.48;;;4.17;84.37
62038;BME280;47991;42.974;12.082;2023-02-03T07:59:56;98880.63;;;4.02;83.93
62038;BME280;47991;42.974;12.082;2023-02-03T08:02:23;98884.14;;;4.01;84.20
62038;BME280;47991;42.974;12.082;2023-02-03T08:04:50;98881.27;;;4.08;84.54
62038;BME280;47991;42.974;12.082;2023-02-03T08:07:16;98872.73;;;4.24;84.43
62038;BME280;47991;42.974;12.082;2023-02-03T08:09:43;98875.59;;;4.39;84.27
62038;BME280;47991;42.974;12.082;2023-02-03T08:12:09;98878.96;;;4.55;84.05
62038;BME280;47991;42.974;12.082;2023-02-03T08:14:36;98878.08;;;4.68;84.11
62038;BME280;47991;42.974;12.082;2023-02-03T08:17:03;98874.47;;;4.73;83.93
62038;BME280;47991;42.974;12.082;2023-02-03T08:19:29;98874.95;;;4.82;84.13
62038;BME280;47991;42.974;12.082;2023-02-03T08:21:56;98878.81;;;4.98;83.95
62038;BME280;47991;42.974;12.082;2023-02-03T08:24:24;98874.95;;;5.14;83.79
62038;BME280;47991;42.974;12.082;2023-02-03T08:26:50;98878.98;;;5.28;83.78
62038;BME280;47991;42.974;12.082;2023-02-03T08:29:18;98883.44;;;5.36;83.56
62038;BME280;47991;42.974;12.082;2023-02-03T08:31:44;98882.98;;;5.42;83.86
62038;BME280;47991;42.974;12.082;2023-02-03T08:34:11;98875.38;;;5.53;83.91
62038;BME280;47991;42.974;12.082;2023-02-03T08:36:38;98876.60;;;5.54;84.63
62038;BME280;47991;42.974;12.082;2023-02-03T08:39:05;98877.45;;;5.51;84.38
62038;BME280;47991;42.974;12.082;2023-02-03T08:41:32;98880.48;;;5.57;83.89
62038;BME280;47991;42.974;12.082;2023-02-03T08:43:59;98889.17;;;5.66;84.01
62038;BME280;47991;42.974;12.082;2023-02-03T08:46:26;98888.31;;;5.69;84.73
62038;BME280;47991;42.974;12.082;2023-02-03T08:48:53;98889.14;;;5.63;84.80
62038;BME280;47991;42.974;12.082;2023-02-03T08:51:22;98891.12;;;5.50;85.23
62038;BME280;47991;42.974;12.082;2023-02-03T08:53:50;98897.58;;;5.48;85.31
62038;BME280;47991;42.974;12.082;2023-02-03T08:56:17;98906.61;;;5.55;85.12
62038;BME280;47991;42.974;12.082;2023-02-03T08:58:44;98905.23;;;5.58;84.56
62038;BME280;47991;42.974;12.082;2023-02-03T09:01:13;98913.73;;;5.49;84.62
62038;BME280;47991;42.974;12.082;2023-02-03T09:03:40;98914.99;;;5.52;85.21
62038;BME280;47991;42.974;12.082;2023-02-03T09:06:08;98923.70;;;5.47;85.53
62038;BME280;47991;42.974;12.082;2023-02-03T09:08:38;98932.02;;;5.37;85.76
62038;BME280;47991;42.974;12.082;2023-02-03T09:11:09;98946.47;;;5.27;85.45
62038;BME280;47991;42.974;12.082;2023-02-03T09:13:36;98971.08;;;5.19;85.36
62038;BME280;47991;42.974;12.082;2023-02-03T09:16:07;98973.45;;;5.12;85.99
62038;BME280;47991;42.974;12.082;2023-02-03T09:18:34;98965.98;;;5.19;85.94
62038;BME280;47991;42.974;12.082;2023-02-03T09:21:02;98980.02;;;4.92;85.19
62038;BME280;47991;42.974;12.082;2023-02-03T09:23:30;98997.20;;;4.80;85.89
62038;BME280;47991;42.974;12.082;2023-02-03T09:26:05;99013.87;;;4.82;85.58
62038;BME280;47991;42.974;12.082;2023-02-03T09:28:33;99031.95;;;4.84;86.00
62038;BME280;47991;42.974;12.082;2023-02-03T09:31:01;99039.80;;;4.94;86.29
62038;BME280;47991;42.974;12.082;2023-02-03T09:33:28;99045.59;;;5.06;86.05
62038;BME280;47991;42.974;12.082;2023-02-03T09:35:56;99048.80;;;5.11;86.33
62038;BME280;47991;42.974;12.082;2023-02-03T09:38:23;99053.90;;;5.12;86.75
62038;BME280;47991;42.974;12.082;2023-02-03T09:40:53;99054.63;;;5.13;86.05
62038;BME280;47991;42.974;12.082;2023-02-03T09:46:25;99048.62;;;5.23;85.75
62038;BME280;47991;42.974;12.082;2023-02-03T09:51:33;99038.34;;;5.28;85.30
62038;BME280;47991;42.974;12.082;2023-02-03T09:54:15;99046.35;;;5.37;86.13
62038;BME280;47991;42.974;12.082;2023-02-03T09:56:47;99041.70;;;5.57;85.25
62038;BME280;47991;42.974;12.082;2023-02-03T09:59:18;99024.71;;;5.75;84.81
62038;BME280;47991;42.974;12.082;2023-02-03T10:02:06;99008.09;;;6.33;83.57
62038;BME280;47991;42.974;12.082;2023-02-03T10:05:10;99001.02;;;6.96;81.97
62038;BME280;47991;42.974;12.082;2023-02-03T10:10:37;98976.77;;;8.52;78.39
62038;BME280;47991;42.974;12.082;2023-02-03T10:16:05;98933.88;;;11.78;64.13
62038;BME280;47991;42.974;12.082;2023-02-03T10:18:47;98922.89;;;13.32;60.13
62038;BME280;47991;42.974;12.082;2023-02-03T10:21:27;98915.72;;;14.71;52.72
62038;BME280;47991;42.974;12.082;2023-02-03T10:23:58;98919.55;;;16.15;52.67
62038;BME280;47991;42.974;12.082;2023-02-03T10:26:27;98920.49;;;15.79;51.41
62038;BME280;47991;42.974;12.082;2023-02-03T10:28:56;98917.55;;;15.52;51.06
62038;BME280;47991;42.974;12.082;2023-02-03T10:31:26;98911.80;;;16.17;49.17
62038;BME280;47991;42.974;12.082;2023-02-03T10:33:58;98904.45;;;16.77;48.66
62038;BME280;47991;42.974;12.082;2023-02-03T10:39:29;98893.84;;;16.94;45.83
62038;BME280;47991;42.974;12.082;2023-02-03T10:41:59;98890.36;;;17.01;47.08
62038;BME280;47991;42.974;12.082;2023-02-03T10:44:41;98879.15;;;16.59;47.81
62038;BME280;47991;42.974;12.082;2023-02-03T10:50:13;98863.99;;;13.70;52.08
62038;BME280;47991;42.974;12.082;2023-02-03T11:01:46;98911.27;;;12.53;59.93
62038;BME280;47991;42.974;12.082;2023-02-03T11:04:27;98913.96;;;12.62;59.31
62038;BME280;47991;42.974;12.082;2023-02-03T11:06:56;98904.02;;;12.62;58.13
62038;BME280;47991;42.974;12.082;2023-02-03T11:09:38;98892.40;;;12.66;58.80
62038;BME280;47991;42.974;12.082;2023-02-03T11:12:34;98885.77;;;12.80;59.45
62038;BME280;47991;42.974;12.082;2023-02-03T11:15:04;98874.81;;;12.96;59.32
62038;BME280;47991;42.974;12.082;2023-02-03T11:17:35;98867.98;;;13.35;57.09
62038;BME280;47991;42.974;12.082;2023-02-03T11:20:14;98862.03;;;13.13;55.12
62038;BME280;47991;42.974;12.082;2023-02-03T11:22:43;98861.98;;;12.89;56.68
62038;BME280;47991;42.974;12.082;2023-02-03T11:25:19;98861.52;;;12.77;56.88
62038;BME280;47991;42.974;12.082;2023-02-03T11:27:47;98860.27;;;12.59;57.76
62038;BME280;47991;42.974;12.082;2023-02-03T11:30:32;98851.42;;;12.48;59.35
62038;BME280;47991;42.974;12.082;2023-02-03T11:33:02;98846.79;;;12.20;58.61
62038;BME280;47991;42.974;12.082;2023-02-03T11:35:56;98837.41;;;12.09;58.35
62038;BME280;47991;42.974;12.082;2023-02-03T11:38:32;98837.46;;;11.94;57.97
62038;BME280;47991;42.974;12.082;2023-02-03T11:41:02;98830.52;;;11.85;59.21
62038;BME280;47991;42.974;12.082;2023-02-03T11:43:54;98824.52;;;11.83;59.38
62038;BME280;47991;42.974;12.082;2023-02-03T11:46:21;98824.74;;;11.69;59.42
62038;BME280;47991;42.974;12.082;2023-02-03T11:49:15;98826.96;;;11.85;60.68
62038;BME280;47991;42.974;12.082;2023-02-03T11:52:11;98836.83;;;12.21;59.61
62038;BME280;47991;42.974;12.082;2023-02-03T12:00:20;98818.66;;;12.26;59.14
62038;BME280;47991;42.974;12.082;2023-02-03T12:06:04;98822.61;;;12.24;58.45
62038;BME280;47991;42.974;12.082;2023-02-03T12:14:17;98797.98;;;12.04;59.03
62038;BME280;47991;42.974;12.082;2023-02-03T12:17:10;98789.21;;;12.18;59.14
62038;BME280;47991;42.974;12.082;2023-02-03T12:36:54;98775.85;;;12.75;58.19
62038;BME280;47991;42.974;12.082;2023-02-03T12:42:18;98768.98;;;12.63;58.06
62038;BME280;47991;42.974;12.082;2023-02-03T12:44:50;98766.85;;;12.73;58.99
62038;BME280;47991;42.974;12.082;2023-02-03T12:47:29;98766.21;;;12.86;58.56
62038;BME280;47991;42.974;12.082;2023-02-03T12:50:06;98754.70;;;12.85;57.80
62038;BME280;47991;42.974;12.082;2023-02-03T12:52:56;98747.45;;;12.75;57.72
62038;BME280;47991;42.974;12.082;2023-02-03T12:57:58;98741.08;;;12.83;58.18
62038;BME280;47991;42.974;12.082;2023-02-03T13:00:41;98742.08;;;12.94;58.05
62038;BME280;47991;42.974;12.082;2023-02-03T13:06:11;98734.05;;;12.63;56.87
62038;BME280;47991;42.974;12.082;2023-02-03T13:08:45;98735.52;;;12.60;58.29
62038;BME280;47991;42.974;12.082;2023-02-03T13:11:23;98738.53;;;12.78;58.75
62038;BME280;47991;42.974;12.082;2023-02-03T13:13:57;98736.83;;;12.75;58.43
62038;BME280;47991;42.974;12.082;2023-02-03T13:16:37;98732.67;;;12.69;58.14
62038;BME280;47991;42.974;12.082;2023-02-03T13:19:11;98730.30;;;12.72;58.78
62038;BME280;47991;42.974;12.082;2023-02-03T13:21:40;98724.32;;;12.79;57.84
62038;BME280;47991;42.974;12.082;2023-02-03T13:24:09;98717.63;;;12.84;59.24
62038;BME280;47991;42.974;12.082;2023-02-03T13:27:00;98721.46;;;12.95;58.29
62038;BME280;47991;42.974;12.082;2023-02-03T13:40:20;98703.07;;;14.00;53.28
62038;BME280;47991;42.974;12.082;2023-02-03T13:42:57;98707.62;;;14.35;53.16
62038;BME280;47991;42.974;12.082;2023-02-03T13:45:38;98708.30;;;14.49;52.98
62038;BME280;47991;42.974;12.082;2023-02-03T13:48:16;98706.35;;;14.74;51.36
62038;BME280;47991;42.974;12.082;2023-02-03T13:50:45;98703.81;;;14.81;51.60
62038;BME280;47991;42.974;12.082;2023-02-03T13:53:19;98698.00;;;14.73;52.76
62038;BME280;47991;42.974;12.082;2023-02-03T13:55:58;98694.55;;;14.57;52.77
62038;BME280;47991;42.974;12.082;2023-02-03T13:58:28;98689.00;;;14.58;52.77
62038;BME280;47991;42.974;12.082;2023-02-03T14:01:00;98684.42;;;14.56;52.34
62038;BME280;47991;42.974;12.082;2023-02-03T14:05:56;98692.31;;;14.42;53.76
62038;BME280;47991;42.974;12.082;2023-02-03T14:16:40;98690.90;;;14.78;52.95
62038;BME280;47991;42.974;12.082;2023-02-03T14:19:57;98680.20;;;14.85;52.57
62038;BME280;47991;42.974;12.082;2023-02-03T14:22:00;98671.52;;;14.84;52.15
62038;BME280;47991;42.974;12.082;2023-02-03T14:24:33;98669.23;;;14.65;52.19
62038;BME280;47991;42.974;12.082;2023-02-03T14:27:05;98668.17;;;14.40;51.94
62038;BME280;47991;42.974;12.082;2023-02-03T14:29:41;98667.86;;;14.26;53.47
62038;BME280;47991;42.974;12.082;2023-02-03T14:32:10;98669.02;;;14.11;52.81
62038;BME280;47991;42.974;12.082;2023-02-03T14:34:39;98674.92;;;13.90;52.89
62038;BME280;47991;42.974;12.082;2023-02-03T14:45:13;98690.04;;;13.76;53.16
62038;BME280;47991;42.974;12.082;2023-02-03T14:55:27;98691.77;;;13.71;54.22
62038;BME280;47991;42.974;12.082;2023-02-03T14:58:02;98685.48;;;13.60;53.57
62038;BME280;47991;42.974;12.082;2023-02-03T15:00:33;98687.13;;;13.65;54.10
62038;BME280;47991;42.974;12.082;2023-02-03T15:05:46;98682.70;;;13.58;53.62
62038;BME280;47991;42.974;12.082;2023-02-03T15:08:36;98677.48;;;13.53;53.97
62038;BME280;47991;42.974;12.082;2023-02-03T15:11:20;98673.29;;;13.50;54.41
62038;BME280;47991;42.974;12.082;2023-02-03T15:13:48;98667.48;;;13.49;54.39
62038;BME280;47991;42.974;12.082;2023-02-03T15:16:18;98666.49;;;13.45;54.48
62038;BME280;47991;42.974;12.082;2023-02-03T15:18:53;98668.95;;;13.46;54.84
62038;BME280;47991;42.974;12.082;2023-02-03T15:21:19;98668.54;;;13.42;54.56
62038;BME280;47991;42.974;12.082;2023-02-03T15:23:47;98668.02;;;13.33;54.57
62038;BME280;47991;42.974;12.082;2023-02-03T15:26:20;98666.70;;;13.29;54.86
62038;BME280;47991;42.974;12.082;2023-02-03T15:29:15;98659.26;;;13.13;54.86
62038;BME280;47991;42.974;12.082;2023-02-03T15:31:45;98655.48;;;13.01;55.53
62038;BME280;47991;42.974;12.082;2023-02-03T15:34:29;98657.05;;;12.95;55.84